createdAt,value
2023-01-19T00:09:47.287Z,-1.9
2023-01-19T00:38:58.851Z,-2.1
2023-01-19T01:08:16.017Z,-2.2
2023-01-19T01:37:30.059Z,-2.1
2023-01-19T02:06:48.981Z,-2.1
2023-01-19T02:36:08.747Z,-1.8
2023-01-19T03:05:32.401Z,-1.2
2023-01-19T03:34:45.455Z,-1.5
2023-01-19T04:04:08.200Z,-1.7
2023-01-19T04:33:27.293Z,-2
2023-01-19T05:02:45.853Z,-2.2
2023-01-19T05:31:55.171Z,-2.3
2023-01-19T06:01:11.432Z,-2.4
2023-01-19T06:30:19.119Z,-2
2023-01-19T06:59:41.057Z,-1.7
2023-01-19T07:28:59.502Z,-1.6
2023-01-19T07:58:16.058Z,-1.4
2023-01-19T08:27:23.637Z,-1.2
2023-01-19T08:56:40.398Z,-0.9
2023-01-19T09:25:56.201Z,-0.6
2023-01-19T09:55:09.241Z,-0.4
2023-01-19T10:24:34.050Z,0.1
2023-01-19T10:53:53.768Z,1.1
2023-01-19T11:23:12.677Z,1.7
2023-01-19T11:52:37.254Z,2.7
2023-01-19T12:21:49.250Z,1.8
2023-01-19T12:51:01.534Z,1.8
2023-01-19T13:20:22.003Z,1.9
2023-01-19T13:49:39.093Z,1.8
2023-01-19T14:18:59.708Z,1.8
2023-01-19T14:48:21.171Z,1.9
2023-01-19T15:17:42.387Z,1.7
2023-01-19T15:47:06.297Z,1.6
2023-01-19T16:16:25.886Z,1.5
2023-01-19T16:45:39.202Z,1.5
2023-01-19T17:14:53.668Z,1.5
2023-01-19T17:44:08.219Z,1.4
2023-01-19T18:13:25.949Z,1.3
2023-01-19T18:42:41.909Z,1.2
2023-01-19T19:12:01.284Z,1.2
2023-01-19T19:41:18.809Z,1.2
2023-01-19T20:10:27.094Z,1.1
2023-01-19T20:39:45.939Z,1
2023-01-19T21:09:03.255Z,0.9
2023-01-19T21:38:15.719Z,0.8
2023-01-19T22:07:36.460Z,0.8
2023-01-19T22:36:52.490Z,0.8
2023-01-19T23:06:13.644Z,0.8
2023-01-19T23:35:29.675Z,0.7
